Terminal Aerodrome Forecast
Issued by NWS La Crosse, WI

Home | Current Version | Previous Version | Text Only | Print | Product List | Glossary On
Versions: 1 2 3 4 5 6 7 8 9 10 11 12 13 14 15 16 17 18 19 20 21 22 23 24 25 26
000
FTUS43 KARX 221505 AAA
TAFRST
TAF AMD
KRST 221505Z 2215/2312 31005KT 1/4SM FG OVC002
      TEMPO 2215/2217 1/2SM FG OVC003
     FM221700 31009KT 1 1/2SM BR OVC005
     FM230100 30007KT 1SM BR OVC003=

USA.gov is the U.S. government's official web portal to all federal, state and local government web resources and services.